Time;durP1;ratioP1;P1;durP2;ratioP2;P2;SDS_P1;SDS_P2;PMS_P1;PMS_P2;Temp;Humidity;BMP_temperature;BMP_pressure;BME280_temperature;BME280_humidity;BME280_pressure;Samples;Min_cycle;Max_cycle;Signal;HPM_P1;HPM_P2
2022/08/08 00:00:17;;;;;;;4.53;2.33;;;;;;;11.58;53.76;102479.91;5020627;28;20038;-76
2022/08/08 00:03:09;;;;;;;6.70;2.42;;;;;;;11.54;53.86;102479.06;5014465;28;20118;-77
2022/08/08 00:05:35;;;;;;;2.80;1.80;;;;;;;11.62;53.58;102481.53;5029059;28;21044;-76
2022/08/08 00:08:28;;;;;;;4.18;2.50;;;;;;;11.56;53.81;102471.19;5003198;28;20092;-76
2022/08/08 00:11:23;;;;;;;3.70;2.28;;;;;;;11.50;53.88;102473.94;5004272;28;20041;-75
2022/08/08 00:14:08;;;;;;;4.00;2.53;;;;;;;11.48;53.81;102478.31;4999626;28;20043;-77
2022/08/08 00:16:46;;;;;;;4.43;2.88;;;;;;;11.36;54.25;102475.03;5013005;28;20099;-76
2022/08/08 00:19:29;;;;;;;3.30;2.15;;;;;;;11.37;54.28;102471.50;5014008;28;20037;-76
2022/08/08 00:22:23;;;;;;;3.05;2.42;;;;;;;11.39;54.59;102474.97;5030510;28;20053;-77
2022/08/08 00:25:12;;;;;;;4.25;3.20;;;;;;;11.35;54.58;102473.31;5018619;28;20500;-77
2022/08/08 00:27:39;;;;;;;3.38;2.90;;;;;;;11.32;54.77;102475.97;4996910;28;20057;-76
2022/08/08 00:30:08;;;;;;;6.57;2.50;;;;;;;11.39;54.80;102482.81;5003385;28;20052;-77
2022/08/08 00:32:49;;;;;;;4.35;2.25;;;;;;;11.52;54.21;102474.75;5002746;28;20499;-76
2022/08/08 00:35:38;;;;;;;6.72;3.22;;;;;;;11.55;54.55;102474.69;5013565;28;20037;-76
2022/08/08 00:38:07;;;;;;;3.90;2.45;;;;;;;11.58;54.31;102477.28;4995407;28;20033;-76
2022/08/08 00:41:17;;;;;;;3.22;2.58;;;;;;;11.45;54.43;102474.88;4993002;28;20037;-76
2022/08/08 00:43:57;;;;;;;5.32;3.42;;;;;;;11.46;54.25;102468.75;5007904;28;20776;-76
2022/08/08 00:46:45;;;;;;;5.82;2.90;;;;;;;11.40;54.36;102475.84;5022010;28;20040;-76
2022/08/08 00:49:45;;;;;;;3.83;2.38;;;;;;;11.35;54.40;102470.72;5013338;28;20033;-76
2022/08/08 00:52:36;;;;;;;3.85;2.60;;;;;;;11.37;54.32;102471.50;5012583;28;20396;-76
2022/08/08 00:55:29;;;;;;;3.42;2.55;;;;;;;11.34;54.40;102471.59;4979002;28;20045;-76
2022/08/08 00:58:04;;;;;;;5.22;3.08;;;;;;;11.25;54.37;102466.50;5007273;28;20447;-76
2022/08/08 01:00:51;;;;;;;4.63;2.70;;;;;;;11.18;54.53;102467.53;5000098;28;20068;-76
2022/08/08 01:03:49;;;;;;;5.47;2.55;;;;;;;11.07;54.70;102466.84;5012900;28;20061;-75
2022/08/08 01:06:25;;;;;;;4.07;2.05;;;;;;;11.04;54.84;102473.84;5014968;28;20033;-77
2022/08/08 01:09:05;;;;;;;3.40;2.15;;;;;;;10.99;54.74;102472.19;5015129;28;20506;-76
2022/08/08 01:12:08;;;;;;;4.63;3.08;;;;;;;10.91;54.71;102469.69;5017188;28;20044;-76
2022/08/08 01:15:21;;;;;;;5.18;2.35;;;;;;;10.92;54.94;102474.03;5010276;28;20034;-74
2022/08/08 01:18:15;;;;;;;3.60;2.38;;;;;;;10.95;54.94;102474.00;5009109;28;20034;-75
2022/08/08 01:21:25;;;;;;;4.82;2.47;;;;;;;10.92;55.03;102474.03;5026004;28;20116;-74
2022/08/08 01:23:54;;;;;;;5.18;2.70;;;;;;;10.91;55.18;102474.94;4999709;28;20041;-77
2022/08/08 01:26:27;;;;;;;3.03;2.45;;;;;;;10.88;54.76;102474.97;5003201;28;20029;-76
2022/08/08 01:29:29;;;;;;;3.72;2.30;;;;;;;10.87;54.99;102475.88;4994062;28;20030;-76
2022/08/08 01:32:00;;;;;;;6.00;2.83;;;;;;;10.86;55.32;102475.88;5007106;28;20475;-76
2022/08/08 01:35:08;;;;;;;3.58;2.20;;;;;;;10.83;55.44;102472.41;5010242;28;20028;-75
2022/08/08 01:37:58;;;;;;;4.45;2.67;;;;;;;10.85;55.51;102482.88;4987966;28;20550;-76
2022/08/08 01:40:47;;;;;;;3.85;2.28;;;;;;;10.87;55.71;102477.63;5025397;28;20041;-75
2022/08/08 01:43:41;;;;;;;2.88;2.17;;;;;;;10.98;55.32;102481.78;4990643;28;20041;-75
2022/08/08 01:46:51;;;;;;;4.95;2.00;;;;;;;11.18;54.52;102481.47;4995029;28;20061;-75
2022/08/08 01:49:33;;;;;;;3.88;2.47;;;;;;;11.07;54.81;102467.69;4995333;28;20037;-77
2022/08/08 01:52:15;;;;;;;3.90;2.05;;;;;;;11.01;54.82;102473.88;5011093;28;20041;-76
2022/08/08 01:54:59;;;;;;;3.10;2.75;;;;;;;10.93;54.96;102474.88;5011654;28;20029;-76
2022/08/08 01:57:46;;;;;;;3.70;2.38;;;;;;;10.92;54.99;102473.16;5000175;28;20038;-76
2022/08/08 02:00:30;;;;;;;4.53;2.10;;;;;;;10.87;55.10;102469.78;4997553;28;20037;-78
2022/08/08 02:03:35;;;;;;;3.85;2.15;;;;;;;10.81;55.10;102475.91;5010760;28;20137;-78
2022/08/08 02:06:39;;;;;;;4.45;2.40;;;;;;;10.80;55.40;102475.06;5008239;28;20034;-77
2022/08/08 02:09:14;;;;;;;5.50;2.72;;;;;;;10.82;55.16;102478.56;5002428;28;20044;-78
2022/08/08 02:11:43;;;;;;;4.22;2.53;;;;;;;10.77;55.52;102485.59;5015589;28;20064;-77
2022/08/08 02:14:36;;;;;;;4.60;2.53;;;;;;;10.76;55.54;102475.13;5023889;28;20100;-77
2022/08/08 02:17:22;;;;;;;3.47;2.35;;;;;;;10.78;55.32;102486.44;5001643;28;20503;-74
2022/08/08 02:20:04;;;;;;;4.13;1.88;;;;;;;10.70;55.30;102481.31;5026252;28;20099;-77
2022/08/08 02:22:40;;;;;;;5.57;2.53;;;;;;;10.68;55.24;102488.31;5011277;28;20760;-76
2022/08/08 02:25:20;;;;;;;4.95;2.22;;;;;;;10.63;55.63;102483.16;4997705;28;20158;-77
2022/08/08 02:27:58;;;;;;;3.72;1.95;;;;;;;10.63;55.53;102485.75;4984127;28;20084;-78
2022/08/08 02:31:01;;;;;;;2.75;2.08;;;;;;;10.64;55.72;102481.41;5024588;28;20305;-75
2022/08/08 02:33:29;;;;;;;3.30;2.05;;;;;;;10.69;55.54;102487.44;5017663;28;20389;-76
2022/08/08 02:36:22;;;;;;;4.32;3.10;;;;;;;10.66;55.42;102492.72;5002669;28;20044;-77
2022/08/08 02:39:18;;;;;;;5.40;2.42;;;;;;;10.70;55.60;102483.06;5011885;28;20033;-74
2022/08/08 02:42:05;;;;;;;4.72;2.63;;;;;;;10.62;55.54;102484.03;4995423;28;20408;-77
2022/08/08 02:44:56;;;;;;;5.10;2.38;;;;;;;10.60;55.73;102488.44;5018977;28;20053;-75
2022/08/08 02:47:44;;;;;;;4.32;2.38;;;;;;;10.59;55.88;102486.72;5014669;28;20061;-76
2022/08/08 02:50:43;;;;;;;3.80;2.10;;;;;;;10.57;55.64;102485.88;5001725;28;20814;-75
2022/08/08 02:53:35;;;;;;;4.72;2.47;;;;;;;10.62;55.79;102486.66;5014488;28;20068;-77
2022/08/08 02:56:38;;;;;;;2.85;2.53;;;;;;;10.72;55.73;102491.75;5032905;28;20696;-77
2022/08/08 02:59:22;;;;;;;3.55;2.05;;;;;;;10.73;55.37;102478.66;5016096;28;20397;-76
2022/08/08 03:02:12;;;;;;;4.03;2.75;;;;;;;10.79;55.74;102483.81;5028242;28;20683;-77
2022/08/08 03:04:56;;;;;;;5.20;2.47;;;;;;;10.75;55.23;102487.34;5015608;28;20512;-75
2022/08/08 03:07:46;;;;;;;4.65;2.80;;;;;;;10.73;55.34;102488.28;5018626;28;20034;-78
2022/08/08 03:10:27;;;;;;;4.03;2.45;;;;;;;10.71;55.61;102495.28;5010084;28;20030;-77
2022/08/08 03:13:04;;;;;;;3.63;2.63;;;;;;;10.71;55.74;102496.13;4993591;28;20040;-77
2022/08/08 03:15:55;;;;;;;2.83;2.40;;;;;;;10.74;55.83;102498.69;5015702;28;20033;-76
2022/08/08 03:18:32;;;;;;;6.45;3.20;;;;;;;10.74;55.45;102500.44;5016818;28;20096;-76
2022/08/08 03:21:00;;;;;;;4.03;2.60;;;;;;;10.78;55.62;102497.75;4999211;28;20072;-75
2022/08/08 03:23:29;;;;;;;5.30;2.78;;;;;;;10.92;55.69;102500.19;5001936;28;20511;-76
2022/08/08 03:25:56;;;;;;;3.63;2.83;;;;;;;11.08;55.61;102505.19;5018661;28;20033;-75
2022/08/08 03:29:02;;;;;;;3.60;2.50;;;;;;;11.28;54.83;102507.47;5015185;28;20603;-75
2022/08/08 03:34:13;;;;;;;5.18;3.60;;;;;;;11.43;54.17;102501.97;5015316;28;20069;-75
2022/08/08 03:36:41;;;;;;;7.43;2.95;;;;;;;11.54;54.56;102505.25;5012295;28;20030;-76
2022/08/08 03:39:10;;;;;;;6.72;2.40;;;;;;;11.74;54.39;102502.28;5011158;28;20038;-76
2022/08/08 03:41:36;;;;;;;3.70;2.30;;;;;;;11.79;53.92;102500.44;5001483;28;20126;-76
2022/08/08 03:44:03;;;;;;;5.45;3.38;;;;;;;11.80;53.60;102496.97;5016231;28;20026;-77
2022/08/08 03:46:49;;;;;;;3.40;2.75;;;;;;;11.90;54.31;102496.78;5014504;28;20783;-76
2022/08/08 03:49:20;;;;;;;4.55;2.15;;;;;;;12.02;53.66;102491.28;5019846;28;20021;-76
2022/08/08 03:51:54;;;;;;;3.83;3.03;;;;;;;12.06;53.63;102499.03;5012426;28;20488;-76
2022/08/08 03:54:25;;;;;;;5.00;2.75;;;;;;;12.13;53.74;102488.44;5012110;28;20080;-76
2022/08/08 03:56:51;;;;;;;4.90;2.75;;;;;;;12.09;53.29;102482.41;5016696;28;20054;-77
2022/08/08 03:59:17;;;;;;;4.55;3.33;;;;;;;12.19;52.91;102489.16;5014489;28;20496;-75
2022/08/08 04:01:43;;;;;;;5.28;2.78;;;;;;;12.22;52.74;102491.75;5015881;28;20033;-77
2022/08/08 04:04:09;;;;;;;4.32;2.90;;;;;;;12.22;52.99;102499.59;5012987;28;20095;-76
2022/08/08 04:06:38;;;;;;;5.78;3.08;;;;;;;12.25;53.13;102488.19;5017762;28;20037;-76
2022/08/08 04:09:07;;;;;;;3.30;2.10;;;;;;;12.44;53.29;102493.88;5001628;28;20455;-75
2022/08/08 04:11:38;;;;;;;2.55;2.03;;;;;;;12.56;52.79;102493.63;5005788;28;20056;-76
2022/08/08 04:14:03;;;;;;;4.97;2.35;;;;;;;12.60;52.56;102500.53;5010027;28;20073;-76
2022/08/08 04:16:29;;;;;;;3.88;3.08;;;;;;;12.63;52.27;102495.19;5011232;28;20026;-77
2022/08/08 04:18:55;;;;;;;4.80;2.58;;;;;;;12.53;52.53;102495.44;5014185;28;20022;-76
2022/08/08 04:21:21;;;;;;;5.22;3.25;;;;;;;12.76;52.53;102500.19;4998076;28;20044;-76
2022/08/08 04:23:47;;;;;;;3.75;2.97;;;;;;;12.80;52.02;102497.44;5012175;28;20096;-77
2022/08/08 04:26:13;;;;;;;3.00;2.67;;;;;;;12.83;51.94;102507.03;5010739;28;20021;-78
2022/08/08 04:28:39;;;;;;;4.85;2.42;;;;;;;12.78;52.29;102508.88;5011421;28;20026;-77
2022/08/08 04:31:05;;;;;;;7.28;2.85;;;;;;;12.65;52.01;102508.28;5018986;28;20048;-78
2022/08/08 04:33:31;;;;;;;7.47;2.80;;;;;;;12.76;52.46;102511.56;5008631;28;20061;-77
2022/08/08 04:35:56;;;;;;;6.13;2.97;;;;;;;12.89;51.64;102514.75;5015993;28;20142;-78
2022/08/08 04:38:23;;;;;;;4.13;2.58;;;;;;;12.92;51.96;102509.44;4994632;28;20083;-77
2022/08/08 04:40:52;;;;;;;3.20;2.70;;;;;;;12.83;51.85;102513.13;4997012;28;20672;-76
2022/08/08 04:43:18;;;;;;;2.63;2.10;;;;;;;12.92;52.17;102522.56;5001103;28;20064;-77
2022/08/08 04:45:49;;;;;;;6.28;2.65;;;;;;;13.01;51.94;102513.59;5013774;28;20507;-78
2022/08/08 04:48:15;;;;;;;3.97;3.05;;;;;;;12.86;51.36;102514.81;5016444;28;20033;-77
2022/08/08 04:50:41;;;;;;;6.75;2.60;;;;;;;13.01;52.00;102511.84;5014608;28;20072;-77
2022/08/08 04:53:11;;;;;;;3.70;2.20;;;;;;;13.15;51.65;102515.88;4993806;28;20620;-76
2022/08/08 04:55:36;;;;;;;4.88;2.47;;;;;;;12.93;51.40;102508.53;5020327;28;20065;-77
2022/08/08 04:58:02;;;;;;;6.90;2.60;;;;;;;13.03;52.23;102503.94;5014702;28;20120;-76
2022/08/08 05:00:27;;;;;;;3.22;2.30;;;;;;;13.09;51.81;102509.91;5020478;28;20101;-77
2022/08/08 05:02:53;;;;;;;6.40;2.55;;;;;;;13.18;51.86;102502.66;5017461;28;20079;-77
2022/08/08 05:05:20;;;;;;;4.72;1.80;;;;;;;13.32;51.45;102506.69;5025552;28;20682;-77
2022/08/08 05:07:46;;;;;;;4.57;2.38;;;;;;;13.32;51.22;102506.69;4972700;28;20036;-76
2022/08/08 05:10:12;;;;;;;2.78;1.92;;;;;;;13.40;51.01;102506.47;5012220;28;20022;-77
2022/08/08 05:12:38;;;;;;;5.90;2.20;;;;;;;13.20;50.42;102512.22;5015638;28;20083;-76
2022/08/08 05:15:04;;;;;;;3.80;2.33;;;;;;;13.26;51.57;102516.47;5013628;28;20115;-76
2022/08/08 05:17:30;;;;;;;4.30;2.35;;;;;;;13.29;51.55;102516.38;4997440;28;20045;-76
2022/08/08 05:19:55;;;;;;;5.07;2.28;;;;;;;13.30;50.82;102520.75;5030174;28;20154;-76
2022/08/08 05:22:28;;;;;;;4.00;2.75;;;;;;;13.16;50.78;102518.47;5007513;28;20131;-76
2022/08/08 05:24:55;;;;;;;2.83;2.17;;;;;;;13.12;51.33;102522.06;5025354;28;20029;-78
2022/08/08 05:27:21;;;;;;;2.40;2.08;;;;;;;13.07;51.76;102516.94;5013218;28;20037;-77
2022/08/08 05:29:47;;;;;;;3.75;1.67;;;;;;;13.14;51.15;102520.28;5012623;28;20079;-76
2022/08/08 05:32:13;;;;;;;2.97;1.98;;;;;;;13.20;50.79;102522.72;5011027;28;20120;-77
2022/08/08 05:34:46;;;;;;;6.22;2.65;;;;;;;13.14;50.49;102532.53;5011933;28;20028;-76
2022/08/08 05:37:17;;;;;;;6.00;1.70;;;;;;;13.56;51.13;102524.47;4993867;28;20585;-77
2022/08/08 05:39:51;;;;;;;2.42;2.22;;;;;;;13.84;49.96;102525.47;5012907;28;20029;-76
2022/08/08 05:42:16;;;;;;;3.58;2.72;;;;;;;13.89;49.46;102528.81;5006529;28;20053;-77
2022/08/08 05:44:48;;;;;;;2.90;2.33;;;;;;;15.38;49.53;102531.34;5013650;28;20080;-77
2022/08/08 05:47:15;;;;;;;3.55;1.60;;;;;;;19.16;41.45;102526.09;4994190;28;20040;-76
2022/08/08 05:49:43;;;;;;;3.92;1.02;;;;;;;21.70;35.10;102523.50;5011674;28;20100;-77
2022/08/08 05:52:09;;;;;;;3.50;1.67;;;;;;;22.84;32.32;102526.91;5011495;28;20878;-77
2022/08/08 05:54:34;;;;;;;2.97;1.63;;;;;;;21.91;32.28;102529.31;5027416;28;20087;-77
2022/08/08 05:57:01;;;;;;;3.00;1.15;;;;;;;19.56;36.17;102537.31;4999864;28;21497;-76
2022/08/08 05:59:32;;;;;;;5.35;1.50;;;;;;;18.14;39.62;102540.66;5016159;28;20025;-76
2022/08/08 06:01:58;;;;;;;6.47;1.60;;;;;;;17.62;40.56;102545.63;5023399;28;20584;-76
2022/08/08 06:04:28;;;;;;;6.38;1.27;;;;;;;17.60;41.93;102551.00;5015702;28;20029;-76
2022/08/08 06:07:02;;;;;;;4.60;1.40;;;;;;;17.47;41.39;102547.13;5011254;28;20076;-78
2022/08/08 06:09:36;;;;;;;4.57;1.48;;;;;;;17.42;41.48;102546.44;4996601;28;20572;-76
2022/08/08 06:12:03;;;;;;;5.28;1.80;;;;;;;17.22;42.07;102548.16;5010255;28;20049;-76
2022/08/08 06:14:30;;;;;;;1.92;1.23;;;;;;;17.47;42.97;102548.88;5012858;28;20037;-77
2022/08/08 06:17:00;;;;;;;2.80;1.30;;;;;;;20.17;37.61;102546.44;5017780;28;20610;-75
2022/08/08 06:19:42;;;;;;;4.45;0.65;;;;;;;24.06;32.44;102551.50;5016602;28;20398;-77
2022/08/08 06:22:08;;;;;;;4.45;0.98;;;;;;;26.06;28.89;102547.13;5002311;28;20056;-75
2022/08/08 06:24:42;;;;;;;1.10;0.60;;;;;;;25.41;28.46;102541.44;5013003;28;20091;-75
2022/08/08 06:27:09;;;;;;;2.17;0.60;;;;;;;23.88;30.68;102552.78;5013796;28;20509;-77
2022/08/08 06:29:57;;;;;;;6.35;0.80;;;;;;;22.40;32.93;102546.63;5000684;28;20410;-76
2022/08/08 06:32:29;;;;;;;5.55;1.02;;;;;;;20.62;35.82;102551.97;5018801;28;20034;-76
2022/08/08 06:34:59;;;;;;;2.28;0.98;;;;;;;20.39;36.81;102548.81;5003937;28;20645;-76
2022/08/08 06:37:32;;;;;;;6.13;1.52;;;;;;;23.48;33.21;102547.56;5017168;28;20080;-75
2022/08/08 06:40:04;;;;;;;3.78;1.13;;;;;;;25.50;28.75;102545.22;5000919;28;20065;-75
2022/08/08 06:42:35;;;;;;;4.45;1.02;;;;;;;26.36;28.60;102546.47;5011259;28;20107;-75
2022/08/08 06:45:04;;;;;;;4.65;0.75;;;;;;;27.65;25.45;102543.69;5003345;28;20044;-75
2022/08/08 06:47:30;;;;;;;4.50;1.20;;;;;;;27.89;24.88;102550.56;5000046;28;20408;-76
2022/08/08 06:49:57;;;;;;;7.13;0.60;;;;;;;29.22;23.02;102540.25;5014161;28;20034;-76
2022/08/08 06:52:25;;;;;;;1.98;0.82;;;;;;;28.74;23.46;102538.44;5017926;28;20057;-77
2022/08/08 06:54:51;;;;;;;6.43;0.90;;;;;;;29.73;23.13;102538.97;5027897;28;20091;-76
2022/08/08 06:57:17;;;;;;;4.03;1.17;;;;;;;30.19;22.20;102539.84;4980049;28;20048;-76
2022/08/08 06:59:42;;;;;;;9.50;1.38;;;;;;;30.63;23.24;102547.22;5017298;28;20040;-76
2022/08/08 07:02:20;;;;;;;4.03;0.55;;;;;;;31.56;21.70;102542.19;5013258;28;20038;-76
2022/08/08 07:04:54;;;;;;;5.38;0.70;;;;;;;32.62;19.99;102551.66;5012656;28;20036;-77
2022/08/08 07:07:33;;;;;;;5.60;0.50;;;;;;;33.33;18.92;102546.53;5012620;28;20034;-77
2022/08/08 07:10:08;;;;;;;1.63;0.40;;;;;;;33.84;19.10;102552.47;5015509;28;20041;-77
2022/08/08 07:12:43;;;;;;;6.00;0.50;;;;;;;34.41;18.48;102554.84;4996670;28;20068;-76
2022/08/08 07:15:14;;;;;;;2.65;0.30;;;;;;;32.60;20.14;102553.66;5006712;28;20732;-76
2022/08/08 07:17:48;;;;;;;4.20;0.45;;;;;;;32.97;19.17;102553.19;5016859;28;20615;-74
2022/08/08 07:20:23;;;;;;;1.15;0.30;;;;;;;32.85;18.65;102560.78;5004594;28;20091;-76
2022/08/08 07:23:08;;;;;;;3.33;0.50;;;;;;;33.39;17.41;102553.97;5004928;28;20141;-75
2022/08/08 07:25:38;;;;;;;2.20;0.35;;;;;;;33.64;18.12;102558.28;5019086;28;20034;-76
2022/08/08 07:28:21;;;;;;;2.23;0.30;;;;;;;32.40;19.37;102556.69;5015164;28;20452;-76
2022/08/08 07:30:48;;;;;;;2.95;0.25;;;;;;;32.51;18.72;102552.81;5003135;28;20029;-77
2022/08/08 07:33:15;;;;;;;2.90;0.30;;;;;;;32.53;18.40;102552.66;5016411;28;20495;-76
2022/08/08 07:35:46;;;;;;;5.20;0.65;;;;;;;32.23;19.28;102563.03;5018243;28;20041;-78
2022/08/08 07:38:14;;;;;;;5.30;0.40;;;;;;;29.97;20.64;102562.69;5014901;28;20153;-76
2022/08/08 07:40:57;;;;;;;1.30;0.20;;;;;;;27.90;23.24;102563.84;5028889;28;20650;-80
2022/08/08 07:43:24;;;;;;;0.85;0.25;;;;;;;27.36;24.27;102569.47;5014719;28;20042;-78
2022/08/08 07:45:52;;;;;;;3.63;0.20;;;;;;;27.93;23.53;102573.47;5017023;28;20554;-78
2022/08/08 07:48:18;;;;;;;1.48;0.20;;;;;;;27.14;23.52;102571.34;5018880;28;20235;-77
2022/08/08 07:50:47;;;;;;;1.45;0.20;;;;;;;25.88;25.74;102569.00;5016598;28;20105;-78
2022/08/08 07:53:44;;;;;;;4.53;1.05;;;;;;;25.35;27.61;102579.41;5028064;28;20037;-77
2022/08/08 07:56:14;;;;;;;1.95;0.20;;;;;;;23.90;30.46;102582.91;5010178;28;20045;-75
2022/08/08 07:58:42;;;;;;;2.72;0.57;;;;;;;23.26;30.88;102578.34;5018035;28;20111;-77
2022/08/08 08:01:14;;;;;;;2.67;0.30;;;;;;;22.81;30.05;102583.13;5017051;28;20411;-76
2022/08/08 08:04:01;;;;;;;1.05;0.35;;;;;;;22.30;32.04;102578.34;5021007;28;20133;-77
2022/08/08 08:06:32;;;;;;;4.03;0.68;;;;;;;21.94;31.91;102590.31;5032846;28;20119;-77
2022/08/08 08:09:07;;;;;;;2.00;0.30;;;;;;;21.59;32.74;102597.78;5001180;28;20044;-78
2022/08/08 08:11:37;;;;;;;4.38;0.40;;;;;;;21.92;32.48;102594.03;4999830;28;20121;-77
2022/08/08 08:14:10;;;;;;;2.15;0.20;;;;;;;21.74;32.68;102591.53;5027863;28;20124;-78
2022/08/08 08:16:44;;;;;;;1.38;0.20;;;;;;;23.78;29.80;102590.78;5020087;28;20042;-78
2022/08/08 08:19:11;;;;;;;2.95;0.35;;;;;;;27.34;24.17;102587.56;5012307;28;20037;-78
2022/08/08 08:21:45;;;;;;;1.00;0.10;;;;;;;29.04;22.21;102593.94;5012926;28;20050;-77
2022/08/08 08:24:21;;;;;;;1.98;0.15;;;;;;;31.41;19.53;102589.69;5010200;28;20144;-77
2022/08/08 08:26:46;;;;;;;2.75;0.20;;;;;;;32.38;18.21;102593.88;5011813;28;20124;-78
2022/08/08 08:29:12;;;;;;;3.00;0.15;;;;;;;32.89;18.23;102590.25;5019339;28;20376;-78
2022/08/08 08:31:41;;;;;;;1.10;0.30;;;;;;;34.18;16.90;102581.97;5012450;28;20273;-78
2022/08/08 08:34:07;;;;;;;1.83;0.40;;;;;;;33.47;17.33;102583.75;5017513;28;20028;-78
2022/08/08 08:36:34;;;;;;;1.23;0.20;;;;;;;32.77;17.99;102587.00;5012698;28;20030;-79
2022/08/08 08:39:00;;;;;;;3.05;0.20;;;;;;;33.45;17.48;102580.38;5011061;28;20030;-77
2022/08/08 08:41:36;;;;;;;3.60;0.30;;;;;;;30.95;19.62;102578.19;5015751;28;20057;-78
2022/08/08 08:44:02;;;;;;;1.17;0.35;;;;;;;27.85;23.17;102579.53;5018967;28;20036;-77
2022/08/08 08:46:29;;;;;;;0.77;0.20;;;;;;;26.51;25.15;102584.56;5017109;28;20532;-79
2022/08/08 08:48:57;;;;;;;1.83;0.50;;;;;;;25.08;27.55;102585.03;4996722;28;20092;-77
2022/08/08 08:51:25;;;;;;;2.03;0.10;;;;;;;23.15;29.60;102591.53;5015006;28;20978;-79
2022/08/08 08:53:54;;;;;;;2.00;0.30;;;;;;;21.85;31.95;102598.88;5010847;28;20543;-77
2022/08/08 08:56:27;;;;;;;2.20;0.30;;;;;;;20.70;35.11;102605.53;5002724;28;20309;-77
2022/08/08 08:59:00;;;;;;;2.28;0.20;;;;;;;20.47;36.23;102613.00;5017905;28;20033;-76
2022/08/08 09:01:51;;;;;;;3.38;0.30;;;;;;;19.90;37.36;102617.78;4996397;28;20613;-77
2022/08/08 09:04:24;;;;;;;6.85;0.70;;;;;;;19.97;37.48;102618.34;5011664;28;20156;-78
2022/08/08 09:06:52;;;;;;;3.42;0.30;;;;;;;19.82;37.60;102627.97;5012073;28;20064;-77
2022/08/08 09:09:33;;;;;;;7.63;0.25;;;;;;;19.70;38.35;102619.72;5017406;28;20032;-78
2022/08/08 09:12:15;;;;;;;1.67;0.25;;;;;;;19.59;37.69;102622.06;5011002;28;20099;-76
2022/08/08 09:14:43;;;;;;;6.82;0.43;;;;;;;19.29;38.84;102627.06;5025153;28;20441;-79
2022/08/08 09:17:10;;;;;;;1.20;0.20;;;;;;;19.08;39.03;102626.34;5014503;28;20045;-77
2022/08/08 09:19:36;;;;;;;3.95;0.40;;;;;;;18.85;39.47;102622.97;5012856;28;20060;-78
2022/08/08 09:22:05;;;;;;;1.33;0.20;;;;;;;18.92;39.54;102628.00;4993205;28;20053;-77
2022/08/08 09:24:34;;;;;;;1.52;0.55;;;;;;;19.23;39.17;102625.59;5011662;28;20037;-77
2022/08/08 09:27:07;;;;;;;4.20;0.77;;;;;;;19.26;39.12;102628.06;4997487;28;20527;-77
2022/08/08 09:30:01;;;;;;;4.43;0.50;;;;;;;19.37;38.52;102629.31;5017871;28;20025;-77
2022/08/08 09:32:36;;;;;;;1.88;0.20;;;;;;;19.09;39.06;102633.34;5011862;28;20049;-78
2022/08/08 09:35:07;;;;;;;1.85;0.30;;;;;;;19.37;38.41;102630.19;5015082;28;20029;-77
2022/08/08 09:37:52;;;;;;;1.83;0.20;;;;;;;19.45;38.48;102630.66;5017615;28;20400;-77
2022/08/08 09:40:26;;;;;;;4.63;0.35;;;;;;;19.79;38.04;102636.06;5011375;28;20629;-77
2022/08/08 09:43:13;;;;;;;1.27;0.20;;;;;;;20.02;37.95;102637.53;5008632;28;20037;-78
2022/08/08 09:45:59;;;;;;;4.38;0.25;;;;;;;20.23;37.35;102636.41;5026773;28;20151;-77
2022/08/08 09:48:29;;;;;;;2.33;0.20;;;;;;;20.21;37.60;102643.59;4999370;28;20045;-77
2022/08/08 09:50:55;;;;;;;3.20;0.52;;;;;;;20.17;37.43;102639.34;4997245;28;20498;-79
2022/08/08 09:53:22;;;;;;;2.42;0.43;;;;;;;20.41;36.60;102634.56;5017078;28;20076;-78
2022/08/08 09:55:48;;;;;;;1.25;0.30;;;;;;;20.66;37.00;102643.84;5013522;28;20111;-76
2022/08/08 09:58:16;;;;;;;2.75;0.50;;;;;;;20.89;37.02;102639.97;4998495;28;20693;-77
2022/08/08 10:00:46;;;;;;;8.73;1.25;;;;;;;20.85;35.68;102638.41;5013329;28;20036;-77
2022/08/08 10:03:16;;;;;;;2.15;0.20;;;;;;;20.59;37.02;102642.47;5011389;28;20059;-78
2022/08/08 10:05:42;;;;;;;4.30;0.30;;;;;;;20.74;37.13;102641.63;5009142;28;20085;-77
2022/08/08 10:08:08;;;;;;;0.88;0.22;;;;;;;20.56;37.13;102643.50;5016357;28;20057;-77
2022/08/08 10:10:42;;;;;;;1.10;0.30;;;;;;;20.60;36.66;102644.22;5003671;28;20029;-78
2022/08/08 10:13:28;;;;;;;2.08;0.20;;;;;;;20.46;36.63;102642.28;5025231;28;20041;-79
2022/08/08 10:15:56;;;;;;;1.98;0.43;;;;;;;20.75;37.74;102643.34;5013230;28;20060;-79
2022/08/08 10:18:33;;;;;;;7.07;0.40;;;;;;;20.57;37.47;102642.56;5012747;28;20076;-78
2022/08/08 10:21:10;;;;;;;1.90;0.30;;;;;;;21.05;35.52;102647.91;5015730;28;20037;-77
2022/08/08 10:23:41;;;;;;;1.83;0.20;;;;;;;21.45;35.43;102637.63;5011840;28;20191;-81
2022/08/08 10:26:15;;;;;;;6.18;0.30;;;;;;;21.65;34.79;102634.69;5012403;28;20052;-77
2022/08/08 10:28:55;;;;;;;3.67;0.55;;;;;;;21.72;34.51;102646.66;5015928;28;20034;-78
2022/08/08 10:34:18;;;;;;;8.90;3.65;;;;;;;21.69;34.30;102638.88;5018187;28;20088;-76
2022/08/08 10:36:45;;;;;;;3.10;0.40;;;;;;;21.81;34.74;102647.91;5010746;28;20049;-75
2022/08/08 10:39:21;;;;;;;2.78;0.47;;;;;;;21.88;33.90;102651.06;5011687;28;20492;-78
2022/08/08 10:42:01;;;;;;;1.13;0.40;;;;;;;22.33;32.86;102647.41;5009629;28;20113;-77
2022/08/08 10:44:32;;;;;;;1.42;0.20;;;;;;;22.02;33.68;102642.22;5011166;28;20040;-75
2022/08/08 10:47:11;;;;;;;1.27;0.20;;;;;;;22.39;32.40;102640.84;5013170;28;20996;-75
2022/08/08 10:49:36;;;;;;;2.47;0.20;;;;;;;22.67;32.42;102639.94;5010723;28;20322;-75
2022/08/08 10:52:03;;;;;;;3.05;0.17;;;;;;;22.90;31.96;102646.50;4999792;28;20068;-75
2022/08/08 10:54:28;;;;;;;3.00;0.15;;;;;;;23.02;31.96;102642.16;5015006;28;20072;-77
2022/08/08 10:56:56;;;;;;;2.20;0.10;;;;;;;23.15;31.11;102644.88;5016160;28;20454;-76
2022/08/08 10:59:22;;;;;;;1.70;0.20;;;;;;;23.38;31.39;102640.69;5013083;28;20109;-78
2022/08/08 11:01:48;;;;;;;1.50;0.32;;;;;;;23.55;31.27;102639.56;5016652;28;20711;-77
2022/08/08 11:04:14;;;;;;;1.10;0.10;;;;;;;23.28;30.75;102635.13;5005603;28;20045;-78
2022/08/08 11:06:39;;;;;;;0.47;0.10;;;;;;;22.45;32.20;102639.59;5020673;28;20561;-77
2022/08/08 11:09:08;;;;;;;2.35;0.38;;;;;;;22.54;31.31;102639.88;5006274;28;20053;-75
2022/08/08 11:11:44;;;;;;;2.47;0.30;;;;;;;22.38;31.90;102644.44;5016444;28;20030;-75
2022/08/08 11:14:12;;;;;;;6.63;0.80;;;;;;;21.71;33.29;102639.66;5016415;28;21342;-75
2022/08/08 11:16:44;;;;;;;1.30;0.20;;;;;;;21.24;33.70;102643.25;5020486;28;20125;-77
2022/08/08 11:19:09;;;;;;;2.95;0.60;;;;;;;21.20;33.63;102649.72;5016758;28;20708;-76
2022/08/08 11:21:44;;;;;;;4.43;0.52;;;;;;;20.95;34.24;102655.53;5015105;28;20052;-76
2022/08/08 11:24:11;;;;;;;1.27;0.20;;;;;;;20.74;35.28;102649.59;5015238;28;21572;-77
2022/08/08 11:26:40;;;;;;;0.30;0.13;;;;;;;20.82;35.00;102650.03;5013515;28;20022;-76
2022/08/08 11:29:07;;;;;;;2.53;0.13;;;;;;;20.12;36.61;102650.22;4998844;28;20034;-75
2022/08/08 11:31:39;;;;;;;1.85;0.20;;;;;;;20.55;36.42;102655.06;5018432;28;20034;-78
2022/08/08 11:34:06;;;;;;;1.60;0.20;;;;;;;20.70;36.01;102651.56;5021590;28;20121;-77
2022/08/08 11:36:32;;;;;;;1.92;0.65;;;;;;;20.41;36.22;102649.66;5015493;28;20029;-77
2022/08/08 11:38:58;;;;;;;1.23;0.20;;;;;;;20.49;36.50;102650.09;5012012;28;20049;-75
2022/08/08 11:41:25;;;;;;;1.10;0.20;;;;;;;20.27;37.41;102661.03;5020991;28;20077;-76
2022/08/08 11:43:53;;;;;;;9.60;0.50;;;;;;;20.16;37.25;102658.03;5027213;28;20049;-78
2022/08/08 11:46:22;;;;;;;1.52;0.30;;;;;;;20.29;36.77;102667.09;5020234;28;20037;-77
2022/08/08 11:48:48;;;;;;;1.80;0.20;;;;;;;20.28;37.04;102660.06;4989885;28;20143;-76
2022/08/08 11:51:17;;;;;;;2.45;0.20;;;;;;;20.13;36.61;102659.91;5030847;28;20083;-76
2022/08/08 11:53:42;;;;;;;1.90;0.17;;;;;;;20.16;37.01;102658.03;5012021;28;20508;-78
2022/08/08 11:56:17;;;;;;;1.45;0.20;;;;;;;19.82;37.08;102657.16;5020864;28;20050;-76
2022/08/08 11:58:43;;;;;;;2.03;0.17;;;;;;;20.34;36.33;102657.09;5004014;28;20053;-77
2022/08/08 12:01:08;;;;;;;1.08;0.10;;;;;;;20.73;35.23;102658.53;5018213;28;20265;-76
2022/08/08 12:03:35;;;;;;;1.95;0.30;;;;;;;20.75;35.48;102651.31;5000702;28;20045;-77